Time;durP1;ratioP1;P1;durP2;ratioP2;P2;SDS_P1;SDS_P2;PMS_P1;PMS_P2;Temp;Humidity;BMP_temperature;BMP_pressure;BME280_temperature;BME280_humidity;BME280_pressure;Samples;Min_cycle;Max_cycle;Signal;HPM_P1;HPM_P2
2023/09/17 00:01:47;;;;;;;8.65;7.18;;;22.60;57.60;24.20;101310.00;;;;5040462;28;20220;-74
2023/09/17 00:04:14;;;;;;;7.15;6.40;;;22.60;57.50;24.20;101317.00;;;;5051997;28;20191;-73
2023/09/17 00:06:42;;;;;;;6.57;5.90;;;22.60;57.50;24.20;101308.00;;;;5044776;28;20192;-72
2023/09/17 00:09:09;;;;;;;7.82;7.07;;;22.60;57.60;24.20;101309.00;;;;5047466;28;20935;-74
2023/09/17 00:11:36;;;;;;;7.20;6.43;;;22.50;57.50;24.20;101310.00;;;;5039617;28;20220;-73
2023/09/17 00:14:05;;;;;;;8.48;6.63;;;22.50;57.50;24.10;101303.00;;;;5044364;28;20188;-72
2023/09/17 00:16:32;;;;;;;7.53;6.75;;;22.50;57.50;24.10;101311.00;;;;5048942;28;20203;-73
2023/09/17 00:18:59;;;;;;;8.40;7.20;;;22.50;57.50;24.10;101297.00;;;;5052520;28;20195;-76
2023/09/17 00:21:26;;;;;;;8.15;6.93;;;22.50;57.60;24.10;101296.00;;;;5045640;28;20201;-73
2023/09/17 00:23:53;;;;;;;9.68;7.63;;;22.50;57.50;24.10;101294.00;;;;5052066;28;20191;-73
2023/09/17 00:26:20;;;;;;;7.75;7.00;;;22.50;57.50;24.10;101296.00;;;;5053667;28;20210;-73
2023/09/17 00:28:47;;;;;;;7.32;6.63;;;22.40;57.50;24.10;101286.00;;;;5041027;28;20222;-73
2023/09/17 00:31:16;;;;;;;8.15;7.32;;;22.40;57.50;24.00;101282.00;;;;5051736;28;20190;-73
2023/09/17 00:33:43;;;;;;;13.50;7.63;;;22.40;57.50;24.00;101280.00;;;;5052162;28;20261;-73
2023/09/17 00:36:10;;;;;;;7.90;7.10;;;22.40;57.40;24.00;101277.00;;;;5052106;28;20192;-73
2023/09/17 00:38:37;;;;;;;9.77;7.22;;;22.40;57.40;24.00;101282.00;;;;5050347;28;20196;-72
2023/09/17 00:41:04;;;;;;;8.60;7.72;;;22.40;57.40;24.00;101275.00;;;;5050319;28;20197;-74
2023/09/17 00:43:31;;;;;;;8.27;7.47;;;22.30;57.40;23.90;101271.00;;;;5052443;28;20192;-74
2023/09/17 00:45:59;;;;;;;8.57;7.63;;;22.30;57.40;23.90;101269.00;;;;5045574;28;20645;-73
2023/09/17 00:48:28;;;;;;;8.05;7.18;;;22.30;57.50;23.90;101268.00;;;;5035269;28;20227;-73
2023/09/17 00:50:56;;;;;;;9.73;7.22;;;22.30;57.50;23.90;101254.00;;;;5049973;28;20187;-73
2023/09/17 00:53:24;;;;;;;7.47;6.70;;;22.30;57.50;23.90;101254.00;;;;5052662;28;20188;-74
2023/09/17 00:55:51;;;;;;;8.25;7.47;;;22.30;57.50;23.80;101248.00;;;;5052728;28;20282;-73
2023/09/17 00:58:20;;;;;;;7.75;6.95;;;22.30;57.50;23.90;101254.00;;;;5051546;28;20279;-73
2023/09/17 01:00:48;;;;;;;8.18;7.35;;;22.20;57.50;23.80;101243.00;;;;5051561;28;20195;-74
2023/09/17 01:03:15;;;;;;;8.90;7.80;;;22.20;58.00;23.80;101241.00;;;;5037883;28;20574;-73
2023/09/17 01:05:45;;;;;;;7.65;6.93;;;22.20;57.40;23.80;101242.00;;;;5033076;28;20205;-72
2023/09/17 01:08:13;;;;;;;8.40;7.45;;;22.20;57.40;23.80;101246.00;;;;5043064;28;20216;-75
2023/09/17 01:10:40;;;;;;;9.43;7.43;;;22.10;57.90;23.70;101239.00;;;;5038634;28;20342;-77
2023/09/17 01:13:09;;;;;;;8.48;7.60;;;22.20;57.40;23.70;101234.00;;;;5035197;28;20344;-75
2023/09/17 01:15:37;;;;;;;9.55;8.15;;;22.10;57.30;23.70;101239.00;;;;5041374;28;20196;-72
2023/09/17 01:18:09;;;;;;;9.13;7.88;;;22.10;57.30;23.70;101233.00;;;;5043533;28;20261;-72
2023/09/17 01:20:47;;;;;;;8.35;7.55;;;22.10;57.30;23.60;101226.00;;;;5045152;28;20589;-72
2023/09/17 01:23:26;;;;;;;8.35;7.55;;;22.10;57.40;23.60;101223.00;;;;5036368;28;21134;-74
2023/09/17 01:25:58;;;;;;;8.73;7.80;;;22.00;57.30;23.60;101231.00;;;;5052568;28;20191;-72
2023/09/17 01:28:26;;;;;;;8.98;7.80;;;22.10;57.40;23.60;101232.00;;;;5038792;28;20228;-73
2023/09/17 01:30:53;;;;;;;13.10;8.48;;;22.10;57.40;23.70;101230.00;;;;5047634;28;20214;-73
2023/09/17 01:33:20;;;;;;;8.85;7.57;;;22.00;57.90;23.70;101226.00;;;;5049318;28;20192;-74
2023/09/17 01:35:57;;;;;;;9.40;7.78;;;22.00;57.40;23.60;101219.00;;;;5051537;28;20198;-73
2023/09/17 01:38:33;;;;;;;10.18;8.10;;;22.00;57.50;23.60;101219.00;;;;5031947;28;20283;-73
2023/09/17 01:41:04;;;;;;;8.00;7.25;;;22.00;57.50;23.60;101210.00;;;;5045635;28;20290;-74
2023/09/17 01:43:33;;;;;;;10.05;7.43;;;22.00;57.40;23.60;101202.00;;;;5049441;28;20191;-74
2023/09/17 01:46:02;;;;;;;8.35;7.55;;;22.00;57.40;23.60;101203.00;;;;5051217;28;20662;-74
2023/09/17 01:48:29;;;;;;;8.85;7.95;;;22.00;57.40;23.60;101206.00;;;;5050970;28;20227;-76
2023/09/17 01:50:59;;;;;;;9.10;8.18;;;22.00;57.40;23.60;101201.00;;;;5050501;28;20218;-73
2023/09/17 01:53:26;;;;;;;10.50;8.57;;;22.00;57.50;23.60;101206.00;;;;5035564;28;20302;-73
2023/09/17 01:55:53;;;;;;;8.73;7.70;;;22.00;57.50;23.60;101199.00;;;;5052445;28;20278;-73
2023/09/17 01:58:22;;;;;;;8.90;7.97;;;22.00;57.50;23.60;101206.00;;;;5034660;28;20192;-72
2023/09/17 02:00:52;;;;;;;9.90;8.90;;;22.00;57.50;23.60;101198.00;;;;5048689;28;20754;-74
2023/09/17 02:03:19;;;;;;;9.02;8.20;;;21.90;57.50;23.60;101192.00;;;;5038333;28;20223;-73
2023/09/17 02:05:46;;;;;;;10.60;8.68;;;22.00;57.50;23.60;101195.00;;;;5033832;28;20203;-73
2023/09/17 02:08:13;;;;;;;10.55;8.48;;;22.00;57.50;23.60;101197.00;;;;5041610;28;20215;-74
2023/09/17 02:10:41;;;;;;;8.30;7.45;;;22.00;57.50;23.60;101200.00;;;;5040152;28;20232;-73
2023/09/17 02:13:08;;;;;;;13.13;8.27;;;22.00;57.60;23.60;101201.00;;;;5031986;28;20207;-74
2023/09/17 02:15:35;;;;;;;12.25;9.13;;;22.00;57.50;23.60;101205.00;;;;5048562;28;20199;-73
2023/09/17 02:18:05;;;;;;;9.93;8.75;;;22.00;57.50;23.60;101205.00;;;;5051703;28;20192;-74
2023/09/17 02:20:32;;;;;;;10.45;8.27;;;22.00;57.50;23.60;101210.00;;;;5042812;28;20224;-73
2023/09/17 02:22:59;;;;;;;9.48;8.48;;;22.00;57.50;23.60;101215.00;;;;5046150;28;20287;-73
2023/09/17 02:25:26;;;;;;;10.88;8.07;;;22.00;57.50;23.60;101206.00;;;;5049739;28;20215;-74
2023/09/17 02:27:53;;;;;;;9.32;8.13;;;22.00;58.10;23.60;101217.00;;;;5051672;28;20302;-73
2023/09/17 02:30:20;;;;;;;11.50;9.13;;;22.00;57.50;23.60;101230.00;;;;5048239;28;20664;-78
2023/09/17 02:32:47;;;;;;;9.90;8.90;;;22.00;57.50;23.60;101234.00;;;;5038368;28;20228;-73
2023/09/17 02:35:16;;;;;;;9.70;8.50;;;22.00;57.50;23.60;101231.00;;;;5030765;28;20219;-75
2023/09/17 02:37:44;;;;;;;12.40;9.10;;;22.00;57.50;23.60;101231.00;;;;5037260;28;20215;-73
2023/09/17 02:40:11;;;;;;;9.95;8.57;;;22.00;57.40;23.60;101229.00;;;;5050193;28;20260;-74
2023/09/17 02:42:39;;;;;;;10.32;8.85;;;22.00;57.50;23.60;101224.00;;;;5048998;28;20206;-73
2023/09/17 02:45:09;;;;;;;9.65;7.93;;;22.00;57.50;23.60;101227.00;;;;5043423;28;20271;-74
2023/09/17 02:47:36;;;;;;;11.60;8.50;;;22.00;57.50;23.60;101235.00;;;;5031341;28;20219;-73
2023/09/17 02:50:04;;;;;;;9.48;8.48;;;22.00;57.60;23.60;101240.00;;;;5037063;28;20606;-72
2023/09/17 02:52:33;;;;;;;10.65;8.98;;;22.00;57.50;23.60;101240.00;;;;5032419;28;20636;-73
2023/09/17 02:55:00;;;;;;;8.80;8.00;;;22.00;57.50;23.60;101239.00;;;;5034578;28;20727;-73
2023/09/17 02:57:27;;;;;;;10.55;8.50;;;22.00;57.50;23.60;101239.00;;;;5041733;28;20565;-73
2023/09/17 02:59:54;;;;;;;9.00;8.05;;;22.00;57.60;23.70;101231.00;;;;5042361;28;20278;-74
2023/09/17 03:02:21;;;;;;;9.93;8.90;;;22.00;57.60;23.70;101229.00;;;;5042611;28;20496;-73
2023/09/17 03:04:51;;;;;;;10.18;8.52;;;22.00;57.70;23.70;101223.00;;;;5042666;28;20643;-74
2023/09/17 03:07:18;;;;;;;9.90;8.90;;;22.00;57.80;23.60;101223.00;;;;5034773;28;20288;-75
2023/09/17 03:09:47;;;;;;;9.35;8.35;;;22.00;57.90;23.60;101214.00;;;;5033795;28;20224;-74
2023/09/17 03:12:14;;;;;;;8.60;7.72;;;22.00;58.00;23.60;101215.00;;;;5034575;28;20580;-76
2023/09/17 03:14:41;;;;;;;9.50;8.40;;;22.00;58.00;23.60;101208.00;;;;5031557;28;20546;-73
2023/09/17 03:17:09;;;;;;;9.60;8.63;;;22.00;58.10;23.60;101201.00;;;;5031016;28;20189;-73
2023/09/17 03:19:36;;;;;;;8.75;7.85;;;21.90;58.10;23.50;101202.00;;;;5039821;28;20275;-73
2023/09/17 03:22:04;;;;;;;10.13;7.20;;;21.90;58.20;23.50;101195.00;;;;5049013;28;20275;-73
2023/09/17 03:24:31;;;;;;;10.02;8.60;;;21.90;58.30;23.50;101199.00;;;;5035218;28;20555;-73
2023/09/17 03:26:59;;;;;;;9.10;8.20;;;21.90;58.40;23.50;101192.00;;;;5035209;28;20724;-74
2023/09/17 03:29:26;;;;;;;9.75;8.75;;;21.80;58.50;23.40;101193.00;;;;5035409;28;20254;-74
2023/09/17 03:31:53;;;;;;;9.15;7.90;;;21.80;58.60;23.40;101189.00;;;;5034532;28;20258;-75
2023/09/17 03:34:20;;;;;;;9.63;8.00;;;21.70;58.60;23.40;101184.00;;;;5054047;28;20198;-73
2023/09/17 03:36:47;;;;;;;8.73;7.82;;;21.70;58.60;23.30;101188.00;;;;5054905;28;20642;-73
2023/09/17 03:39:14;;;;;;;8.40;7.47;;;21.70;58.70;23.30;101182.00;;;;5038034;28;20202;-73
2023/09/17 03:41:42;;;;;;;9.13;7.88;;;21.60;58.80;23.30;101178.00;;;;5047556;28;20196;-74
2023/09/17 03:44:10;;;;;;;9.75;7.75;;;21.60;58.80;23.20;101187.00;;;;5052415;28;20194;-72
2023/09/17 03:46:38;;;;;;;9.52;8.45;;;21.60;58.90;23.20;101180.00;;;;5053563;28;20192;-73
2023/09/17 03:49:05;;;;;;;8.40;7.60;;;21.50;58.90;23.20;101183.00;;;;5051409;28;20216;-73
2023/09/17 03:51:33;;;;;;;8.18;7.10;;;21.50;58.90;23.20;101174.00;;;;5034253;28;20223;-73
2023/09/17 03:54:01;;;;;;;7.47;6.72;;;21.50;59.00;23.10;101176.00;;;;5051906;28;20282;-75
2023/09/17 03:56:28;;;;;;;9.18;8.07;;;21.40;59.00;23.10;101169.00;;;;5052601;28;20204;-74
2023/09/17 03:58:55;;;;;;;9.55;8.27;;;21.40;59.10;23.00;101168.00;;;;5053269;28;20194;-73
2023/09/17 04:01:24;;;;;;;8.15;7.03;;;21.40;59.20;23.00;101174.00;;;;5034423;28;20279;-75
2023/09/17 04:03:51;;;;;;;8.80;7.90;;;21.30;59.20;22.90;101167.00;;;;5046911;28;20211;-75
2023/09/17 04:06:18;;;;;;;8.88;7.25;;;21.30;59.30;22.90;101164.00;;;;5053970;28;20202;-74
2023/09/17 04:08:45;;;;;;;9.60;7.63;;;21.30;59.30;22.80;101160.00;;;;5047404;28;20220;-74
2023/09/17 04:11:15;;;;;;;7.88;7.07;;;21.20;59.30;22.80;101159.00;;;;5033347;28;20680;-75
2023/09/17 04:13:43;;;;;;;7.28;6.57;;;21.20;59.30;22.80;101151.00;;;;5042769;28;20631;-75
2023/09/17 04:16:12;;;;;;;7.75;6.95;;;21.10;59.20;22.70;101148.00;;;;5049973;28;20294;-76
2023/09/17 04:18:40;;;;;;;8.45;7.57;;;21.10;59.40;22.70;101150.00;;;;5054342;28;20184;-74
2023/09/17 04:21:07;;;;;;;8.50;7.65;;;21.00;59.50;22.60;101146.00;;;;5049684;28;20214;-75
2023/09/17 04:23:34;;;;;;;7.95;7.15;;;21.00;59.50;22.60;101149.00;;;;5033412;28;20196;-76
2023/09/17 04:26:02;;;;;;;7.88;7.15;;;20.90;59.50;22.50;101144.00;;;;5040601;28;20283;-75
2023/09/17 04:28:30;;;;;;;9.15;8.05;;;20.90;59.60;22.50;101140.00;;;;5033897;28;20216;-76
2023/09/17 04:30:57;;;;;;;8.82;7.93;;;20.80;59.70;22.50;101141.00;;;;5045776;28;20531;-74
2023/09/17 04:33:24;;;;;;;10.95;8.05;;;20.80;59.70;22.40;101126.00;;;;5051479;28;20648;-76
2023/09/17 04:35:58;;;;;;;10.43;8.20;;;20.70;59.80;22.30;101131.00;;;;5037294;28;20188;-74
2023/09/17 04:38:27;;;;;;;7.45;6.53;;;20.70;60.00;22.30;101133.00;;;;5045919;28;20199;-75
2023/09/17 04:40:54;;;;;;;11.25;8.55;;;20.70;59.80;22.20;101125.00;;;;5038142;28;20184;-74
2023/09/17 04:43:23;;;;;;;9.65;7.40;;;20.60;59.90;22.20;101128.00;;;;5046938;28;20269;-75
2023/09/17 04:45:50;;;;;;;8.25;7.05;;;20.50;60.00;22.20;101127.00;;;;5051431;28;20215;-74
2023/09/17 04:48:17;;;;;;;8.57;7.28;;;20.50;60.10;22.10;101133.00;;;;5038374;28;20773;-74
2023/09/17 04:50:45;;;;;;;8.23;7.43;;;20.40;60.10;22.10;101124.00;;;;5038894;28;20198;-74
2023/09/17 04:53:13;;;;;;;9.80;8.80;;;20.40;60.40;22.10;101121.00;;;;5034338;28;20184;-75
2023/09/17 04:55:40;;;;;;;9.48;7.43;;;20.40;60.60;22.00;101124.00;;;;5049662;28;20594;-75
2023/09/17 04:58:08;;;;;;;8.27;7.38;;;20.40;60.50;22.00;101132.00;;;;5052089;28;20188;-75
2023/09/17 05:00:35;;;;;;;10.82;7.57;;;20.30;60.70;22.00;101132.00;;;;5048385;28;20195;-74
2023/09/17 05:03:02;;;;;;;8.23;7.40;;;20.30;60.80;21.90;101128.00;;;;5045339;28;20223;-73
2023/09/17 05:05:29;;;;;;;8.45;7.53;;;20.30;60.90;22.00;101131.00;;;;5039525;28;20283;-75
2023/09/17 05:07:56;;;;;;;7.53;6.70;;;20.30;61.20;21.90;101129.00;;;;5037186;28;20223;-74
2023/09/17 05:10:25;;;;;;;8.48;7.55;;;20.20;61.00;21.90;101136.00;;;;5044970;28;20235;-73
2023/09/17 05:12:53;;;;;;;8.15;7.10;;;20.30;61.20;21.90;101140.00;;;;5044479;28;20196;-73
2023/09/17 05:15:21;;;;;;;8.27;7.10;;;20.20;61.30;21.90;101127.00;;;;5040909;28;20643;-73
2023/09/17 05:17:48;;;;;;;8.82;7.93;;;20.20;61.40;21.90;101135.00;;;;5042125;28;20292;-74
2023/09/17 05:20:15;;;;;;;9.43;8.45;;;20.20;61.40;21.90;101136.00;;;;5036068;28;20188;-74
2023/09/17 05:22:42;;;;;;;8.00;7.20;;;20.20;61.60;21.90;101135.00;;;;5033047;28;20284;-75
2023/09/17 05:25:10;;;;;;;10.15;8.02;;;20.20;61.70;21.90;101127.00;;;;5033133;28;20192;-76
2023/09/17 05:27:38;;;;;;;11.52;8.02;;;20.20;61.80;21.80;101126.00;;;;5040962;28;20557;-76
2023/09/17 05:30:07;;;;;;;9.23;8.32;;;20.20;61.80;21.80;101138.00;;;;5049313;28;20563;-75
2023/09/17 05:32:35;;;;;;;8.82;7.53;;;20.10;61.70;21.80;101140.00;;;;5041125;28;20198;-75
2023/09/17 05:35:03;;;;;;;9.85;7.57;;;20.10;61.80;21.70;101141.00;;;;5041016;28;20246;-74
2023/09/17 05:37:32;;;;;;;9.60;7.57;;;20.10;62.00;21.70;101133.00;;;;5040806;28;20184;-80
2023/09/17 05:39:59;;;;;;;9.07;7.63;;;20.10;62.00;21.60;101133.00;;;;5048692;28;20191;-77
2023/09/17 05:42:26;;;;;;;9.10;7.75;;;20.10;62.10;21.60;101135.00;;;;5041066;28;20192;-77
2023/09/17 05:44:55;;;;;;;8.52;7.38;;;20.10;62.20;21.60;101125.00;;;;5046744;28;20199;-78
2023/09/17 05:47:22;;;;;;;10.23;8.23;;;20.00;62.20;21.50;101137.00;;;;5044197;28;20438;-78
2023/09/17 05:49:49;;;;;;;8.98;7.57;;;20.00;62.30;21.50;101129.00;;;;5044659;28;20219;-78
2023/09/17 05:52:18;;;;;;;8.65;7.82;;;20.00;62.40;21.40;101129.00;;;;5061916;28;20191;-76
2023/09/17 05:54:45;;;;;;;10.23;8.30;;;19.90;62.40;21.40;101139.00;;;;5060600;28;20636;-78
2023/09/17 05:57:12;;;;;;;9.00;8.10;;;19.90;62.50;21.40;101136.00;;;;5057583;28;20282;-77
2023/09/17 05:59:40;;;;;;;10.23;8.07;;;19.90;62.70;21.40;101131.00;;;;5055422;28;20656;-76
2023/09/17 06:02:09;;;;;;;8.38;7.53;;;19.90;62.80;21.40;101139.00;;;;5054276;28;20298;-77
2023/09/17 06:04:37;;;;;;;10.98;8.20;;;19.90;62.90;21.40;101143.00;;;;5051763;28;20185;-79
2023/09/17 06:07:04;;;;;;;8.27;7.47;;;19.90;63.00;21.40;101141.00;;;;5054327;28;20241;-79
2023/09/17 06:09:32;;;;;;;10.68;8.77;;;19.80;62.90;21.40;101145.00;;;;5063949;28;20219;-79
2023/09/17 06:11:59;;;;;;;8.32;7.43;;;19.80;63.10;21.40;101134.00;;;;5052697;28;20219;-78
2023/09/17 06:14:27;;;;;;;10.43;8.23;;;19.80;63.20;21.40;101140.00;;;;5057762;28;20191;-75
2023/09/17 06:16:54;;;;;;;9.23;8.23;;;19.80;63.40;21.40;101138.00;;;;5052457;28;20537;-78
2023/09/17 06:19:23;;;;;;;8.88;7.93;;;19.80;63.40;21.40;101144.00;;;;5058891;28;20191;-76
2023/09/17 06:21:50;;;;;;;9.95;8.80;;;19.80;63.60;21.50;101138.00;;;;5048166;28;20195;-78
2023/09/17 06:24:18;;;;;;;9.40;8.45;;;19.80;63.70;21.50;101139.00;;;;5037554;28;20192;-75
2023/09/17 06:26:45;;;;;;;8.48;7.68;;;19.80;63.70;21.50;101141.00;;;;5038035;28;20193;-79
2023/09/17 06:29:12;;;;;;;8.77;7.97;;;19.90;63.80;21.50;101138.00;;;;5048283;28;20214;-77
2023/09/17 06:31:40;;;;;;;10.10;8.80;;;19.80;63.80;21.50;101143.00;;;;5040957;28;20200;-80
2023/09/17 06:34:07;;;;;;;9.18;7.82;;;19.90;63.90;21.50;101145.00;;;;5044558;28;20222;-79
2023/09/17 06:36:38;;;;;;;8.65;7.63;;;19.90;63.90;21.50;101151.00;;;;5042852;28;20207;-80
2023/09/17 06:39:06;;;;;;;9.52;8.40;;;19.90;64.00;21.60;101152.00;;;;5047839;28;20291;-79
2023/09/17 06:41:33;;;;;;;9.13;8.00;;;19.90;64.10;21.60;101152.00;;;;5051206;28;20282;-79
2023/09/17 06:44:01;;;;;;;9.15;8.23;;;19.90;64.20;21.60;101147.00;;;;5055470;28;20194;-80
2023/09/17 06:46:29;;;;;;;9.00;8.10;;;19.90;64.30;21.60;101144.00;;;;5059019;28;20201;-78
2023/09/17 06:48:57;;;;;;;9.63;7.82;;;20.00;64.40;21.70;101138.00;;;;5057264;28;20194;-79
2023/09/17 06:51:24;;;;;;;9.68;7.85;;;20.00;64.40;21.70;101148.00;;;;5055117;28;20204;-78
2023/09/17 06:53:53;;;;;;;12.15;8.00;;;20.00;64.50;21.70;101145.00;;;;5047670;28;20607;-79
2023/09/17 06:56:23;;;;;;;8.80;7.85;;;20.00;64.50;21.70;101141.00;;;;5058929;28;20294;-79
2023/09/17 06:58:50;;;;;;;8.90;7.32;;;20.10;64.60;21.80;101145.00;;;;5059523;28;20223;-79
2023/09/17 07:01:19;;;;;;;7.60;6.72;;;20.10;64.50;21.80;101152.00;;;;5066819;28;20198;-79
2023/09/17 07:03:46;;;;;;;9.73;7.88;;;20.10;64.50;21.80;101147.00;;;;5061090;28;20297;-79
2023/09/17 07:06:13;;;;;;;8.50;7.65;;;20.10;64.60;21.80;101148.00;;;;5043123;28;20287;-78
2023/09/17 07:08:41;;;;;;;10.07;7.68;;;20.20;64.60;21.90;101157.00;;;;5044279;28;20291;-79
2023/09/17 07:11:09;;;;;;;7.95;7.15;;;20.20;64.60;21.90;101163.00;;;;5052191;28;20602;-79
2023/09/17 07:13:38;;;;;;;8.35;7.45;;;20.20;64.70;21.90;101157.00;;;;5055297;28;20739;-80
2023/09/17 07:16:05;;;;;;;9.55;7.45;;;20.20;64.60;21.90;101158.00;;;;5037488;28;20219;-85
2023/09/17 07:18:32;;;;;;;9.07;8.00;;;20.20;64.60;22.00;101149.00;;;;5053373;28;20196;-83
2023/09/17 07:20:59;;;;;;;7.72;6.85;;;20.20;64.70;22.00;101155.00;;;;5049189;28;20192;-83
2023/09/17 07:23:27;;;;;;;8.48;7.28;;;20.20;64.60;22.00;101163.00;;;;5043499;28;20200;-86
2023/09/17 07:25:54;;;;;;;8.93;7.25;;;20.30;64.70;22.00;101164.00;;;;5047856;28;20192;-88
2023/09/17 07:28:23;;;;;;;8.30;7.50;;;20.30;64.60;22.00;101163.00;;;;5046496;28;20209;-83
2023/09/17 07:30:55;;;;;;;9.25;7.25;;;20.30;64.60;21.90;101168.00;;;;5047399;28;20782;-86
2023/09/17 07:33:23;;;;;;;8.63;7.35;;;20.30;64.80;22.00;101166.00;;;;5039639;28;20192;-83
2023/09/17 07:35:50;;;;;;;8.55;6.03;;;20.30;64.70;22.00;101160.00;;;;5035956;28;20651;-83
2023/09/17 07:38:17;;;;;;;9.55;7.15;;;20.30;64.70;22.00;101165.00;;;;5043276;28;20278;-84
2023/09/17 07:40:44;;;;;;;7.78;6.60;;;20.30;64.70;22.00;101167.00;;;;5048219;28;20291;-82
2023/09/17 07:43:11;;;;;;;7.50;6.20;;;20.40;64.80;22.10;101171.00;;;;5038660;28;20254;-82
2023/09/17 07:45:40;;;;;;;6.95;6.13;;;20.40;64.80;22.10;101169.00;;;;5047465;28;20286;-81
2023/09/17 07:48:07;;;;;;;7.50;6.43;;;20.40;65.00;22.10;101174.00;;;;5034558;28;20203;-82
2023/09/17 07:50:34;;;;;;;7.72;6.95;;;20.40;64.90;22.10;101169.00;;;;5044888;28;20216;-81
2023/09/17 07:53:03;;;;;;;6.88;6.20;;;20.40;64.90;22.20;101167.00;;;;5036620;28;20518;-82
2023/09/17 07:55:30;;;;;;;7.20;6.35;;;20.50;65.00;22.20;101165.00;;;;5043304;28;20199;-82
2023/09/17 07:57:57;;;;;;;6.30;5.68;;;20.50;65.00;22.20;101168.00;;;;5045939;28;20196;-82
2023/09/17 08:00:24;;;;;;;6.68;6.00;;;20.50;65.00;22.30;101167.00;;;;5034425;28;20614;-81
2023/09/17 08:02:53;;;;;;;7.00;6.28;;;20.50;65.00;22.20;101162.00;;;;5040760;28;20225;-80
2023/09/17 08:05:20;;;;;;;6.40;5.72;;;20.60;65.20;22.30;101164.00;;;;5036856;28;20206;-82
2023/09/17 08:07:47;;;;;;;6.90;5.72;;;20.60;65.20;22.30;101165.00;;;;5042769;28;20655;-81
2023/09/17 08:10:14;;;;;;;6.55;5.60;;;20.60;65.20;22.40;101165.00;;;;5043715;28;20226;-82
2023/09/17 08:12:41;;;;;;;7.18;6.25;;;20.60;65.30;22.40;101159.00;;;;5035429;28;20310;-82
2023/09/17 08:15:09;;;;;;;8.23;6.15;;;20.70;65.40;22.40;101154.00;;;;5050874;28;20211;-81
2023/09/17 08:17:36;;;;;;;6.93;5.78;;;20.70;65.40;22.40;101166.00;;;;5036778;28;20196;-83
2023/09/17 08:20:09;;;;;;;7.68;6.80;;;20.70;65.20;22.40;101154.00;;;;5038143;28;20206;-81
2023/09/17 08:22:37;;;;;;;6.20;5.32;;;20.70;65.20;22.50;101153.00;;;;5038461;28;20188;-83
2023/09/17 08:25:08;;;;;;;6.90;6.20;;;20.80;65.20;22.50;101153.00;;;;5051587;28;20204;-86
2023/09/17 08:27:35;;;;;;;5.82;5.25;;;20.80;65.20;22.50;101155.00;;;;5040257;28;20223;-83
2023/09/17 08:30:11;;;;;;;6.85;6.18;;;20.80;65.10;22.50;101156.00;;;;5034606;28;20684;-88
2023/09/17 08:32:39;;;;;;;6.45;5.65;;;20.80;65.00;22.50;101148.00;;;;5047173;28;20591;-84
2023/09/17 08:35:09;;;;;;;7.97;6.18;;;20.80;64.90;22.50;101152.00;;;;5044902;28;20204;-83
2023/09/17 08:37:36;;;;;;;6.47;5.85;;;20.80;64.90;22.50;101149.00;;;;5047176;28;20648;-82
2023/09/17 08:40:09;;;;;;;6.95;6.25;;;20.80;64.80;22.50;101141.00;;;;5036365;28;20204;-78
2023/09/17 08:42:37;;;;;;;6.97;6.30;;;20.80;64.90;22.50;101144.00;;;;5048329;28;20206;-86
2023/09/17 08:45:07;;;;;;;7.25;6.05;;;20.80;64.90;22.50;101137.00;;;;5049565;28;20567;-86
2023/09/17 08:47:34;;;;;;;7.28;6.43;;;20.80;64.80;22.50;101136.00;;;;5042465;28;20207;-81
2023/09/17 08:50:01;;;;;;;8.40;6.50;;;20.80;64.70;22.50;101136.00;;;;5046135;28;20605;-80
2023/09/17 08:52:35;;;;;;;10.18;7.38;;;20.80;64.60;22.40;101141.00;;;;5039975;28;20222;-80
2023/09/17 08:57:31;;;;;;;7.30;6.53;;;20.80;64.60;22.40;101152.00;;;;5033837;22;20244;-76
2023/09/17 09:00:08;;;;;;;8.80;7.50;;;20.80;64.70;22.40;101152.00;;;;5029630;28;20207;-76
2023/09/17 09:02:44;;;;;;;9.20;7.55;;;20.70;64.70;22.40;101153.00;;;;5026888;28;20200;-79
2023/09/17 09:05:15;;;;;;;8.45;7.43;;;20.70;64.70;22.40;101153.00;;;;5025949;28;20291;-77
2023/09/17 09:07:44;;;;;;;11.00;8.52;;;20.80;64.70;22.40;101162.00;;;;5028357;28;20196;-76
2023/09/17 09:10:15;;;;;;;8.48;7.30;;;20.80;64.80;22.40;101150.00;;;;5027929;28;20302;-77
2023/09/17 09:12:43;;;;;;;7.97;7.00;;;20.80;64.90;22.40;101151.00;;;;5028852;28;20713;-77
2023/09/17 09:15:11;;;;;;;8.55;7.65;;;20.80;64.80;22.50;101151.00;;;;5027730;28;20624;-77
2023/09/17 09:17:39;;;;;;;9.55;7.78;;;20.70;64.80;22.50;101162.00;;;;5028671;28;20196;-76
2023/09/17 09:20:10;;;;;;;9.70;8.57;;;20.80;64.90;22.40;101148.00;;;;5022736;28;20211;-77
2023/09/17 09:22:38;;;;;;;10.77;7.80;;;20.70;64.90;22.50;101151.00;;;;5022407;28;20200;-76
2023/09/17 09:25:10;;;;;;;8.13;7.13;;;20.70;64.90;22.40;101150.00;;;;5027030;28;20212;-76
2023/09/17 09:27:38;;;;;;;7.65;6.88;;;20.80;65.20;22.50;101138.00;;;;5026942;28;20196;-77
2023/09/17 09:30:09;;;;;;;10.20;8.38;;;20.80;65.20;22.50;101139.00;;;;5017959;28;20220;-77
2023/09/17 09:32:37;;;;;;;9.38;8.13;;;20.80;65.40;22.60;101141.00;;;;5028710;28;20283;-76
2023/09/17 09:35:06;;;;;;;12.13;9.05;;;20.80;65.40;22.60;101143.00;;;;5027273;28;20204;-77
2023/09/17 09:37:34;;;;;;;10.57;9.23;;;20.80;65.50;22.60;101141.00;;;;5027648;28;20201;-78
2023/09/17 09:40:02;;;;;;;14.32;8.85;;;20.90;65.50;22.70;101152.00;;;;5025530;28;20207;-77
2023/09/17 09:42:31;;;;;;;10.20;8.23;;;20.90;65.40;22.70;101148.00;;;;5028236;28;20200;-77
2023/09/17 09:44:59;;;;;;;9.95;8.60;;;20.90;65.60;22.70;101152.00;;;;5025899;28;20204;-77
2023/09/17 09:47:26;;;;;;;9.70;8.60;;;21.00;65.50;22.70;101153.00;;;;5025570;28;20200;-78
2023/09/17 09:49:53;;;;;;;9.43;8.45;;;21.00;65.40;22.80;101148.00;;;;5026284;28;20206;-78
2023/09/17 09:52:24;;;;;;;13.55;11.13;;;21.00;65.40;22.70;101140.00;;;;5024117;28;20466;-77
2023/09/17 09:54:50;;;;;;;13.77;9.07;;;21.00;65.90;22.80;101141.00;;;;5027679;28;20200;-78
2023/09/17 09:57:20;;;;;;;9.30;8.27;;;21.00;66.00;22.80;101134.00;;;;5026213;28;20224;-78
2023/09/17 09:59:50;;;;;;;10.23;8.73;;;21.10;65.90;22.90;101128.00;;;;5028625;28;20646;-79
2023/09/17 10:02:20;;;;;;;11.90;9.85;;;21.10;65.80;22.90;101135.00;;;;5021802;28;20234;-77
2023/09/17 10:04:48;;;;;;;10.73;9.63;;;21.20;65.80;23.00;101121.00;;;;5027638;28;20696;-78
2023/09/17 10:07:17;;;;;;;11.70;8.88;;;21.20;65.70;23.00;101121.00;;;;5025385;28;20274;-77
2023/09/17 10:09:44;;;;;;;10.40;9.18;;;21.30;65.90;23.10;101118.00;;;;5026491;28;20279;-78
2023/09/17 10:12:12;;;;;;;10.85;9.70;;;21.30;65.90;23.10;101111.00;;;;5024552;28;20197;-77
2023/09/17 10:14:42;;;;;;;11.15;9.77;;;21.30;65.90;23.10;101116.00;;;;5027204;28;20208;-77
2023/09/17 10:17:13;;;;;;;14.43;11.25;;;21.40;65.90;23.20;101113.00;;;;5028151;28;20208;-78
2023/09/17 10:19:42;;;;;;;11.90;10.27;;;21.40;65.90;23.20;101113.00;;;;5027352;28;20257;-78
2023/09/17 10:22:12;;;;;;;13.40;10.77;;;21.50;65.80;23.30;101118.00;;;;5026417;28;20565;-78
2023/09/17 10:24:41;;;;;;;19.95;15.40;;;21.50;65.80;23.30;101115.00;;;;5013739;28;20453;-77
2023/09/17 10:27:09;;;;;;;13.90;11.82;;;21.50;66.30;23.40;101106.00;;;;5023388;28;20215;-77
2023/09/17 10:29:38;;;;;;;13.05;10.57;;;21.50;66.20;23.40;101114.00;;;;5025818;28;20220;-79
2023/09/17 10:32:06;;;;;;;14.48;11.02;;;21.60;66.10;23.40;101103.00;;;;5011561;28;20222;-77
2023/09/17 10:34:36;;;;;;;12.57;10.95;;;21.60;66.00;23.50;101104.00;;;;5028388;28;20210;-76
2023/09/17 10:37:05;;;;;;;14.45;11.55;;;21.70;66.00;23.50;101101.00;;;;5024688;28;20196;-77
2023/09/17 10:39:33;;;;;;;13.60;11.50;;;21.70;65.80;23.50;101096.00;;;;5027077;28;20196;-77
2023/09/17 10:42:02;;;;;;;13.70;10.68;;;21.80;65.80;23.50;101092.00;;;;5026557;28;20246;-77
2023/09/17 10:44:36;;;;;;;16.60;12.77;;;21.80;65.80;23.50;101096.00;;;;5025972;28;20201;-77
2023/09/17 10:47:09;;;;;;;13.82;11.32;;;21.80;65.60;23.50;101094.00;;;;5026426;28;20861;-77
2023/09/17 10:49:39;;;;;;;13.20;10.70;;;21.80;65.50;23.60;101087.00;;;;5019535;28;20197;-77
2023/09/17 10:52:07;;;;;;;16.27;11.90;;;21.90;65.50;23.60;101093.00;;;;5025176;28;20224;-77